Time;durP1;ratioP1;P1;durP2;ratioP2;P2;SDS_P1;SDS_P2;PMS_P1;PMS_P2;Temp;Humidity;BMP_temperature;BMP_pressure;BME280_temperature;BME280_humidity;BME280_pressure;Samples;Min_cycle;Max_cycle;Signal;HPM_P1;HPM_P2
2021/12/13 00:00:09;;;;;;;2.67;2.30;;;;;;;;;;5116375;28;20224;-83
2021/12/13 00:02:41;;;;;;;10.77;3.43;;;;;;;;;;5116526;28;20215;-82
2021/12/13 00:05:11;;;;;;;9.90;2.47;;;;;;;;;;5116390;28;20238;-83
2021/12/13 00:07:41;;;;;;;3.50;2.20;;;;;;;;;;5116303;28;20286;-83
2021/12/13 00:10:13;;;;;;;9.93;2.83;;;;;;;;;;5116061;28;20200;-83
2021/12/13 00:12:43;;;;;;;9.37;3.47;;;;;;;;;;5115828;28;20309;-83
2021/12/13 00:15:14;;;;;;;5.93;2.43;;;;;;;;;;5115699;28;20253;-85
2021/12/13 00:17:50;;;;;;;2.43;1.43;;;;;;;;;;5116061;28;20218;-83
2021/12/13 00:20:27;;;;;;;5.10;3.17;;;;;;;;;;5116024;28;20215;-83
2021/12/13 00:22:57;;;;;;;11.17;1.80;;;;;;;;;;5115863;28;20282;-83
2021/12/13 00:25:28;;;;;;;8.07;2.70;;;;;;;;;;5115493;28;20287;-83
2021/12/13 00:27:58;;;;;;;1.70;1.30;;;;;;;;;;5115696;28;20215;-83
2021/12/13 00:30:31;;;;;;;8.90;3.60;;;;;;;;;;5115721;28;20223;-83
2021/12/13 00:33:07;;;;;;;7.03;2.00;;;;;;;;;;5115521;28;20302;-83
2021/12/13 00:35:38;;;;;;;9.17;2.00;;;;;;;;;;5115629;28;20198;-84
2021/12/13 00:38:07;;;;;;;4.70;2.17;;;;;;;;;;5115521;28;20200;-84
2021/12/13 00:40:38;;;;;;;15.20;2.83;;;;;;;;;;5115657;28;20228;-84
2021/12/13 00:43:09;;;;;;;1.87;1.23;;;;;;;;;;5115450;28;20200;-84
2021/12/13 00:45:39;;;;;;;5.10;1.50;;;;;;;;;;5115416;28;20238;-84
2021/12/13 00:48:09;;;;;;;5.60;3.43;;;;;;;;;;5115523;28;20215;-84
2021/12/13 00:50:39;;;;;;;12.07;2.53;;;;;;;;;;5114829;28;20266;-84
2021/12/13 00:53:08;;;;;;;8.90;2.80;;;;;;;;;;5115325;27;20239;-84
2021/12/13 00:55:37;;;;;;;1.63;1.17;;;;;;;;;;5115222;28;20200;-84
2021/12/13 00:58:10;;;;;;;8.60;2.50;;;;;;;;;;5114866;28;20196;-84
2021/12/13 01:00:40;;;;;;;7.27;2.37;;;;;;;;;;5115095;28;20208;-84
2021/12/13 01:03:13;;;;;;;3.13;1.77;;;;;;;;;;5115354;28;20216;-84
2021/12/13 01:05:49;;;;;;;4.73;1.97;;;;;;;;;;5114918;28;20181;-84
2021/12/13 01:08:31;;;;;;;0.80;0.80;;;;;;;;;;5115106;28;20204;-84
2021/12/13 01:11:13;;;;;;;2.30;1.40;;;;;;;;;;5115222;28;20271;-84
2021/12/13 01:13:52;;;;;;;6.77;2.33;;;;;;;;;;5114711;28;20341;-84
2021/12/13 01:16:36;;;;;;;5.63;2.97;;;;;;;;;;5115004;28;20192;-83
2021/12/13 01:19:27;;;;;;;9.13;2.97;;;;;;;;;;5115310;28;20181;-83
2021/12/13 01:22:02;;;;;;;4.17;1.83;;;;;;;;;;5114884;28;20302;-83
2021/12/13 01:25:03;;;;;;;4.10;2.20;;;;;;;;;;5114613;28;20187;-83
2021/12/13 01:27:32;;;;;;;10.93;3.90;;;;;;;;;;5114958;28;20224;-83
2021/12/13 01:30:00;;;;;;;8.47;1.67;;;;;;;;;;5115050;28;20205;-84
2021/12/13 01:32:37;;;;;;;9.07;2.53;;;;;;;;;;5114965;28;20224;-83
2021/12/13 01:35:13;;;;;;;1.33;1.23;;;;;;;;;;5114377;28;20247;-83
2021/12/13 01:37:42;;;;;;;5.87;1.80;;;;;;;;;;5114111;28;20223;-83
2021/12/13 01:40:13;;;;;;;8.57;2.37;;;;;;;;;;5114741;28;20245;-83
2021/12/13 01:42:41;;;;;;;3.93;2.07;;;;;;;;;;5114412;28;20222;-83
2021/12/13 01:45:12;;;;;;;5.50;1.77;;;;;;;;;;5114294;28;20233;-83
2021/12/13 01:47:42;;;;;;;2.37;1.40;;;;;;;;;;5114412;28;20200;-83
2021/12/13 01:50:16;;;;;;;4.77;1.13;;;;;;;;;;5114300;28;20255;-83
2021/12/13 01:52:48;;;;;;;8.23;1.47;;;;;;;;;;5114487;28;20191;-83
2021/12/13 01:55:21;;;;;;;1.17;1.17;;;;;;;;;;5113963;28;20280;-83
2021/12/13 01:57:54;;;;;;;3.37;1.60;;;;;;;;;;5114752;28;20193;-83
2021/12/13 02:00:33;;;;;;;2.80;1.13;;;;;;;;;;5114669;28;20185;-83
2021/12/13 02:03:01;;;;;;;2.10;1.30;;;;;;;;;;5114514;28;20224;-83
2021/12/13 02:05:32;;;;;;;4.03;1.13;;;;;;;;;;5114199;28;20228;-84
2021/12/13 02:08:02;;;;;;;2.17;1.50;;;;;;;;;;5114492;28;20400;-84
2021/12/13 02:10:34;;;;;;;4.30;1.10;;;;;;;;;;5114535;28;20243;-83
2021/12/13 02:13:05;;;;;;;2.80;1.50;;;;;;;;;;5118503;28;20204;-83
2021/12/13 02:18:25;;;;;;;6.53;1.27;;;;;;;;;;5118482;28;20191;-84
2021/12/13 02:21:02;;;;;;;6.07;1.83;;;;;;;;;;5118003;28;20214;-84
2021/12/13 02:23:33;;;;;;;2.00;1.20;;;;;;;;;;5118033;28;20209;-83
2021/12/13 02:26:01;;;;;;;4.50;1.33;;;;;;;;;;5117983;28;20233;-83
2021/12/13 02:28:31;;;;;;;14.77;1.60;;;;;;;;;;5118336;28;20196;-83
2021/12/13 02:31:01;;;;;;;2.10;1.67;;;;;;;;;;5117947;28;20241;-83
2021/12/13 02:33:31;;;;;;;4.13;2.10;;;;;;;;;;5117919;28;20212;-83
2021/12/13 02:36:00;;;;;;;5.57;1.57;;;;;;;;;;5117925;28;20231;-83
2021/12/13 02:38:29;;;;;;;3.57;2.57;;;;;;;;;;5118035;28;20227;-83
2021/12/13 02:41:00;;;;;;;6.20;1.77;;;;;;;;;;5117981;28;20208;-83
2021/12/13 02:43:30;;;;;;;2.43;1.60;;;;;;;;;;5117897;28;20207;-83
2021/12/13 02:45:59;;;;;;;6.57;1.67;;;;;;;;;;5118037;28;20231;-83
2021/12/13 02:48:30;;;;;;;2.70;1.83;;;;;;;;;;5117482;28;20213;-83
2021/12/13 02:51:00;;;;;;;4.67;2.20;;;;;;;;;;5117386;28;20239;-83
2021/12/13 02:53:31;;;;;;;1.63;1.43;;;;;;;;;;5118000;28;20211;-83
2021/12/13 02:56:01;;;;;;;3.97;1.20;;;;;;;;;;5117482;28;20283;-83
2021/12/13 02:58:30;;;;;;;4.77;2.63;;;;;;;;;;5117454;28;20263;-83
2021/12/13 03:01:01;;;;;;;6.03;1.97;;;;;;;;;;5117500;28;20224;-83
2021/12/13 03:03:32;;;;;;;1.50;1.33;;;;;;;;;;5117491;28;20224;-84
2021/12/13 03:06:02;;;;;;;5.03;1.37;;;;;;;;;;5117696;28;20231;-83
2021/12/13 03:08:33;;;;;;;1.37;1.20;;;;;;;;;;5117636;28;20223;-83
2021/12/13 03:11:09;;;;;;;2.07;1.33;;;;;;;;;;5117335;28;20200;-83
2021/12/13 03:13:37;;;;;;;3.03;1.87;;;;;;;;;;5117188;28;20200;-83
2021/12/13 03:16:09;;;;;;;6.43;2.70;;;;;;;;;;5117755;28;20203;-83
2021/12/13 03:18:42;;;;;;;7.33;2.87;;;;;;;;;;5117568;28;20196;-83
2021/12/13 03:21:41;;;;;;;6.17;3.60;;;;;;;;;;5117167;28;20203;-83
2021/12/13 03:24:19;;;;;;;3.97;2.43;;;;;;;;;;5096782;28;20217;-83
2021/12/13 03:27:07;;;;;;;3.03;1.73;;;;;;;;;;5096678;28;20216;-83
2021/12/13 03:29:42;;;;;;;3.73;1.57;;;;;;;;;;5096893;28;20227;-83
2021/12/13 03:32:12;;;;;;;3.97;2.13;;;;;;;;;;5096725;28;20212;-84
2021/12/13 03:34:45;;;;;;;3.33;1.63;;;;;;;;;;5096072;28;20221;-84
2021/12/13 03:37:15;;;;;;;3.97;2.40;;;;;;;;;;5096822;28;20208;-84
2021/12/13 03:39:45;;;;;;;3.67;2.23;;;;;;;;;;5106158;28;20283;-84
2021/12/13 03:42:20;;;;;;;5.27;2.23;;;;;;;;;;5116702;28;20207;-84
2021/12/13 03:44:51;;;;;;;3.20;2.03;;;;;;;;;;5116405;28;20190;-84
2021/12/13 03:47:20;;;;;;;4.03;2.13;;;;;;;;;;5116769;28;20260;-84
2021/12/13 03:49:50;;;;;;;2.67;2.23;;;;;;;;;;5116599;28;20287;-84
2021/12/13 03:52:20;;;;;;;4.80;1.93;;;;;;;;;;5116761;28;20195;-84
2021/12/13 03:54:49;;;;;;;3.47;2.10;;;;;;;;;;5116596;28;20248;-84
2021/12/13 03:57:20;;;;;;;2.40;2.20;;;;;;;;;;5116498;28;20299;-84
2021/12/13 03:59:50;;;;;;;4.87;1.50;;;;;;;;;;5116670;28;20254;-84
2021/12/13 04:02:21;;;;;;;7.93;3.17;;;;;;;;;;5116742;28;20297;-84
2021/12/13 04:04:51;;;;;;;2.17;1.97;;;;;;;;;;5116247;28;20250;-84
2021/12/13 04:07:21;;;;;;;4.87;2.37;;;;;;;;;;5116111;28;20295;-84
2021/12/13 04:09:50;;;;;;;2.37;2.17;;;;;;;;;;5115985;28;20214;-84
2021/12/13 04:12:24;;;;;;;2.13;1.40;;;;;;;;;;5116026;28;20259;-84
2021/12/13 04:14:59;;;;;;;3.50;1.97;;;;;;;;;;5116203;28;20207;-84
2021/12/13 04:17:41;;;;;;;4.03;2.87;;;;;;;;;;5116323;28;20194;-84
2021/12/13 04:20:11;;;;;;;5.70;3.30;;;;;;;;;;5115970;28;20223;-84
2021/12/13 04:22:42;;;;;;;4.23;2.73;;;;;;;;;;5116220;28;20229;-84
2021/12/13 04:25:11;;;;;;;1.73;1.63;;;;;;;;;;5115855;28;20218;-84
2021/12/13 04:27:43;;;;;;;3.10;2.80;;;;;;;;;;5115809;28;20219;-84
2021/12/13 04:30:18;;;;;;;5.00;3.57;;;;;;;;;;5115949;27;20211;-84
2021/12/13 04:32:50;;;;;;;4.77;3.10;;;;;;;;;;5115643;28;20208;-84
2021/12/13 04:35:18;;;;;;;2.77;2.50;;;;;;;;;;5114869;28;20311;-84
2021/12/13 04:37:50;;;;;;;8.50;3.27;;;;;;;;;;5115718;28;20199;-84
2021/12/13 04:40:20;;;;;;;3.40;2.47;;;;;;;;;;5115629;28;20231;-84
2021/12/13 04:42:52;;;;;;;2.97;2.63;;;;;;;;;;5115354;28;20231;-84
2021/12/13 04:45:23;;;;;;;3.13;2.83;;;;;;;;;;5115591;28;20298;-84
2021/12/13 04:47:55;;;;;;;2.13;2.00;;;;;;;;;;5115490;28;20211;-84
2021/12/13 04:50:26;;;;;;;4.00;2.63;;;;;;;;;;5115412;28;20247;-84
2021/12/13 04:52:55;;;;;;;4.93;2.77;;;;;;;;;;5115589;28;20247;-84
2021/12/13 04:55:25;;;;;;;3.67;2.90;;;;;;;;;;5115124;28;20254;-84
2021/12/13 04:57:57;;;;;;;3.90;2.40;;;;;;;;;;5115177;28;20243;-84
2021/12/13 05:00:27;;;;;;;1.67;1.57;;;;;;;;;;5115264;28;20279;-84
2021/12/13 05:02:58;;;;;;;6.03;3.20;;;;;;;;;;5115350;28;20228;-84
2021/12/13 05:05:27;;;;;;;3.90;3.23;;;;;;;;;;5115383;28;20207;-84
2021/12/13 05:07:56;;;;;;;7.47;3.87;;;;;;;;;;5115161;28;20249;-84
2021/12/13 05:10:25;;;;;;;3.90;2.30;;;;;;;;;;5114931;28;20196;-84
2021/12/13 05:13:03;;;;;;;3.47;2.53;;;;;;;;;;5115153;28;20196;-84
2021/12/13 05:15:33;;;;;;;5.37;2.20;;;;;;;;;;5114827;28;20247;-83
2021/12/13 05:18:04;;;;;;;4.87;3.30;;;;;;;;;;5114684;28;20208;-83
2021/12/13 05:20:34;;;;;;;3.60;2.30;;;;;;;;;;5114970;28;20325;-84
2021/12/13 05:23:06;;;;;;;6.80;3.37;;;;;;;;;;5114716;28;20204;-84
2021/12/13 05:25:40;;;;;;;3.43;1.97;;;;;;;;;;5114493;28;20220;-84
2021/12/13 05:28:12;;;;;;;3.07;2.77;;;;;;;;;;5114928;28;20212;-84
2021/12/13 05:30:44;;;;;;;4.33;2.83;;;;;;;;;;5114847;28;20224;-84
2021/12/13 05:33:15;;;;;;;4.67;2.60;;;;;;;;;;5114930;28;20230;-84
2021/12/13 05:35:45;;;;;;;6.77;2.90;;;;;;;;;;5114451;28;20251;-83
2021/12/13 05:38:26;;;;;;;4.50;3.47;;;;;;;;;;5114595;28;20274;-83
2021/12/13 05:40:55;;;;;;;5.17;2.93;;;;;;;;;;5114447;28;20208;-84
2021/12/13 05:43:25;;;;;;;4.87;2.70;;;;;;;;;;5114452;28;20200;-84
2021/12/13 05:45:55;;;;;;;5.10;2.13;;;;;;;;;;5114396;28;20196;-84
2021/12/13 05:48:26;;;;;;;6.87;2.93;;;;;;;;;;5115020;28;20211;-83
2021/12/13 05:50:56;;;;;;;2.40;2.13;;;;;;;;;;5114078;28;20333;-83
2021/12/13 05:53:26;;;;;;;2.00;1.80;;;;;;;;;;5114273;28;20215;-84
2021/12/13 05:55:57;;;;;;;2.00;1.73;;;;;;;;;;5113843;28;20255;-84
2021/12/13 05:58:43;;;;;;;3.30;2.40;;;;;;;;;;5114381;28;20217;-84
2021/12/13 06:01:16;;;;;;;1.87;1.70;;;;;;;;;;5114102;28;20283;-84
2021/12/13 06:03:48;;;;;;;4.97;2.43;;;;;;;;;;5114384;28;20230;-83
2021/12/13 06:06:20;;;;;;;2.23;1.90;;;;;;;;;;5114372;28;20197;-83
2021/12/13 06:08:49;;;;;;;5.30;2.90;;;;;;;;;;5114440;28;20200;-83
2021/12/13 06:11:19;;;;;;;1.73;1.63;;;;;;;;;;5114562;28;20269;-83
2021/12/13 06:13:58;;;;;;;2.30;1.50;;;;;;;;;;5114170;28;20200;-83
2021/12/13 06:16:43;;;;;;;2.60;2.23;;;;;;;;;;5114330;28;20303;-83
2021/12/13 06:19:15;;;;;;;1.60;1.40;;;;;;;;;;5114601;28;20231;-83
2021/12/13 06:21:52;;;;;;;8.03;2.73;;;;;;;;;;5114412;28;20212;-83
2021/12/13 06:24:25;;;;;;;3.23;1.47;;;;;;;;;;5113624;28;20253;-83
2021/12/13 06:27:01;;;;;;;4.77;2.90;;;;;;;;;;5114290;28;20261;-82
2021/12/13 06:29:42;;;;;;;1.90;1.63;;;;;;;;;;5114062;28;20208;-82
2021/12/13 06:32:24;;;;;;;2.77;1.17;;;;;;;;;;5113801;28;20235;-83
2021/12/13 06:34:56;;;;;;;2.20;1.50;;;;;;;;;;5113919;28;20191;-83
2021/12/13 06:37:26;;;;;;;13.17;4.87;;;;;;;;;;5113852;28;20254;-82
2021/12/13 06:40:10;;;;;;;5.13;2.03;;;;;;;;;;5113768;28;20257;-83
2021/12/13 06:42:38;;;;;;;2.90;2.40;;;;;;;;;;5113984;28;20200;-83
2021/12/13 06:45:18;;;;;;;2.70;1.43;;;;;;;;;;5114015;28;20204;-84
2021/12/13 06:47:50;;;;;;;1.50;1.40;;;;;;;;;;5113854;28;20245;-83
2021/12/13 06:50:27;;;;;;;4.37;1.97;;;;;;;;;;5113496;28;20239;-83
2021/12/13 06:53:10;;;;;;;1.60;1.47;;;;;;;;;;5113627;28;20207;-83
2021/12/13 06:55:39;;;;;;;5.50;1.90;;;;;;;;;;5114224;28;20212;-83
2021/12/13 06:58:14;;;;;;;3.67;2.27;;;;;;;;;;5116110;28;20200;-85
2021/12/13 07:00:42;;;;;;;3.10;1.90;;;;;;;;;;5117670;28;20204;-84
2021/12/13 07:03:17;;;;;;;1.57;1.20;;;;;;;;;;5116931;27;20314;-83
2021/12/13 07:05:46;;;;;;;2.10;1.67;;;;;;;;;;5117357;28;20184;-83
2021/12/13 07:08:19;;;;;;;2.43;2.07;;;;;;;;;;5117147;28;20232;-84
2021/12/13 07:10:56;;;;;;;1.40;1.30;;;;;;;;;;5117151;28;20208;-83
2021/12/13 07:13:26;;;;;;;2.53;2.33;;;;;;;;;;5117337;28;20200;-83
2021/12/13 07:15:57;;;;;;;1.07;1.00;;;;;;;;;;5117279;28;20257;-83
2021/12/13 07:18:30;;;;;;;2.37;1.67;;;;;;;;;;5116727;28;20204;-83
2021/12/13 07:21:04;;;;;;;3.03;1.93;;;;;;;;;;5117006;28;20253;-83
2021/12/13 07:23:47;;;;;;;2.63;2.43;;;;;;;;;;5116905;28;20245;-83
2021/12/13 07:26:15;;;;;;;2.17;1.97;;;;;;;;;;5116739;28;20184;-83
2021/12/13 07:28:45;;;;;;;6.70;2.90;;;;;;;;;;5116867;28;20204;-83
2021/12/13 07:31:19;;;;;;;1.70;1.43;;;;;;;;;;5116780;28;20204;-83
2021/12/13 07:33:51;;;;;;;1.97;1.83;;;;;;;;;;5117003;27;20204;-83
2021/12/13 07:36:22;;;;;;;3.13;1.93;;;;;;;;;;5116461;28;20242;-80
2021/12/13 07:38:52;;;;;;;2.67;1.20;;;;;;;;;;5116589;28;20200;-83
2021/12/13 07:41:21;;;;;;;2.83;1.63;;;;;;;;;;5116496;28;20279;-83
2021/12/13 07:43:52;;;;;;;1.60;1.50;;;;;;;;;;5116719;28;20204;-83
2021/12/13 07:46:27;;;;;;;3.10;1.23;;;;;;;;;;5116521;28;20257;-83
2021/12/13 07:48:58;;;;;;;2.87;2.13;;;;;;;;;;5116679;28;20199;-83
2021/12/13 07:51:29;;;;;;;6.47;3.00;;;;;;;;;;5116129;28;20265;-83
2021/12/13 07:54:03;;;;;;;3.00;2.50;;;;;;;;;;5116652;28;20208;-83
2021/12/13 07:56:42;;;;;;;2.50;1.90;;;;;;;;;;5116471;28;20224;-83
2021/12/13 07:59:12;;;;;;;3.57;2.33;;;;;;;;;;5116171;28;20213;-83
2021/12/13 08:01:44;;;;;;;3.77;2.57;;;;;;;;;;5116326;28;20215;-83
2021/12/13 08:04:15;;;;;;;5.13;3.40;;;;;;;;;;5112165;28;20246;-83
2021/12/13 08:06:48;;;;;;;3.63;2.00;;;;;;;;;;5113128;28;20196;-83
2021/12/13 08:09:18;;;;;;;1.73;1.63;;;;;;;;;;5109207;28;20204;-82
2021/12/13 08:11:52;;;;;;;4.20;2.33;;;;;;;;;;5106172;28;20199;-82
2021/12/13 08:14:26;;;;;;;4.77;3.07;;;;;;;;;;5103503;28;20193;-82
2021/12/13 08:16:54;;;;;;;1.20;0.67;;;;;;;;;;5107390;28;20215;-82
2021/12/13 08:19:27;;;;;;;1.70;1.60;;;;;;;;;;5107291;28;20192;-82
2021/12/13 08:21:58;;;;;;;4.13;2.80;;;;;;;;;;5112879;28;20196;-78
2021/12/13 08:24:29;;;;;;;3.60;2.70;;;;;;;;;;5102107;28;20223;-81
2021/12/13 08:27:09;;;;;;;5.93;3.53;;;;;;;;;;5110422;28;20227;-80
2021/12/13 08:29:42;;;;;;;3.57;2.23;;;;;;;;;;5099597;28;20201;-80
2021/12/13 08:32:14;;;;;;;2.10;1.90;;;;;;;;;;5110369;28;20201;-80
2021/12/13 08:34:46;;;;;;;2.60;2.40;;;;;;;;;;5101495;28;20231;-81
2021/12/13 08:37:17;;;;;;;4.03;2.30;;;;;;;;;;5103809;28;20228;-81
2021/12/13 08:39:47;;;;;;;1.20;1.20;;;;;;;;;;5098911;28;20201;-80
2021/12/13 08:42:17;;;;;;;1.53;1.43;;;;;;;;;;5106038;28;20212;-81
2021/12/13 08:44:46;;;;;;;2.37;2.13;;;;;;;;;;5102180;28;20227;-80
2021/12/13 08:47:16;;;;;;;2.43;2.23;;;;;;;;;;5103528;28;20200;-81
2021/12/13 08:49:48;;;;;;;1.37;1.30;;;;;;;;;;5106853;28;20216;-80
2021/12/13 08:52:22;;;;;;;2.50;2.00;;;;;;;;;;5100831;28;20256;-81
2021/12/13 08:54:57;;;;;;;4.23;3.73;;;;;;;;;;5105462;28;20231;-82
2021/12/13 08:57:49;;;;;;;3.07;2.23;;;;;;;;;;5112405;28;20290;-81
2021/12/13 09:00:23;;;;;;;1.43;1.33;;;;;;;;;;5093667;28;20209;-82
2021/12/13 09:02:56;;;;;;;5.93;2.60;;;;;;;;;;5108715;28;20240;-81
2021/12/13 09:05:28;;;;;;;2.10;1.90;;;;;;;;;;5108243;28;20279;-81
2021/12/13 09:07:58;;;;;;;3.20;2.60;;;;;;;;;;5108797;28;20208;-81
2021/12/13 09:10:37;;;;;;;4.23;2.70;;;;;;;;;;5101070;28;20215;-81
2021/12/13 09:13:06;;;;;;;5.10;2.67;;;;;;;;;;5112130;28;20216;-82
2021/12/13 09:15:36;;;;;;;2.77;1.90;;;;;;;;;;5107779;28;20201;-82
2021/12/13 09:18:06;;;;;;;2.67;2.43;;;;;;;;;;5106197;28;20204;-82
2021/12/13 09:20:41;;;;;;;4.97;3.50;;;;;;;;;;5100549;28;20201;-82
2021/12/13 09:23:12;;;;;;;7.13;2.37;;;;;;;;;;5101764;28;20204;-82
2021/12/13 09:25:43;;;;;;;4.13;2.90;;;;;;;;;;5093223;28;20211;-82
2021/12/13 09:28:13;;;;;;;2.00;1.77;;;;;;;;;;5111460;28;20220;-81
2021/12/13 09:30:44;;;;;;;2.30;1.57;;;;;;;;;;5110537;28;20192;-81
2021/12/13 09:33:15;;;;;;;4.17;2.70;;;;;;;;;;5100366;28;20209;-81
2021/12/13 09:35:48;;;;;;;4.33;1.27;;;;;;;;;;5100773;28;20193;-81
2021/12/13 09:38:32;;;;;;;4.20;2.30;;;;;;;;;;5100113;28;20254;-85
2021/12/13 09:41:09;;;;;;;3.43;2.67;;;;;;;;;;5096823;28;20296;-81
2021/12/13 09:43:42;;;;;;;3.30;2.90;;;;;;;;;;5096730;28;20240;-81
2021/12/13 09:46:11;;;;;;;2.70;2.20;;;;;;;;;;5108367;28;20216;-81
2021/12/13 09:48:42;;;;;;;3.77;2.80;;;;;;;;;;5099296;28;20193;-81
2021/12/13 09:51:15;;;;;;;3.20;2.27;;;;;;;;;;5105367;28;20228;-81
2021/12/13 09:53:52;;;;;;;2.93;2.67;;;;;;;;;;5103662;28;20212;-80
2021/12/13 09:56:22;;;;;;;3.87;2.47;;;;;;;;;;5101236;28;20208;-81
2021/12/13 09:58:52;;;;;;;1.77;1.60;;;;;;;;;;5097104;28;20285;-81
2021/12/13 10:01:22;;;;;;;3.27;2.67;;;;;;;;;;5109170;28;20248;-81
2021/12/13 10:03:55;;;;;;;2.17;2.07;;;;;;;;;;5096187;28;20224;-81
2021/12/13 10:06:29;;;;;;;2.03;1.47;;;;;;;;;;5102401;28;20200;-82
2021/12/13 10:09:00;;;;;;;7.10;3.00;;;;;;;;;;5102654;28;20270;-81
2021/12/13 10:11:30;;;;;;;3.57;2.33;;;;;;;;;;5105274;28;20228;-82
2021/12/13 10:14:00;;;;;;;1.70;1.60;;;;;;;;;;5103952;28;20208;-81
2021/12/13 10:16:32;;;;;;;3.53;2.83;;;;;;;;;;5109058;28;20204;-82
2021/12/13 10:19:02;;;;;;;3.57;2.73;;;;;;;;;;5099721;28;20220;-82
2021/12/13 10:21:34;;;;;;;2.30;2.10;;;;;;;;;;5105901;28;20204;-82
2021/12/13 10:24:05;;;;;;;2.53;1.87;;;;;;;;;;5100484;28;20218;-80
2021/12/13 10:26:39;;;;;;;4.30;2.93;;;;;;;;;;5096401;28;20208;-81
2021/12/13 10:29:08;;;;;;;4.20;3.20;;;;;;;;;;5095793;28;20246;-83
2021/12/13 10:31:39;;;;;;;4.33;3.40;;;;;;;;;;5099495;28;20216;-81
2021/12/13 10:34:09;;;;;;;4.33;2.83;;;;;;;;;;5105225;28;20201;-81
2021/12/13 10:36:43;;;;;;;1.60;1.50;;;;;;;;;;5103778;28;20232;-83
2021/12/13 10:39:16;;;;;;;3.83;2.70;;;;;;;;;;5109248;28;20249;-82
2021/12/13 10:42:08;;;;;;;1.13;1.13;;;;;;;;;;5106345;28;20224;-83
2021/12/13 10:44:43;;;;;;;2.47;1.37;;;;;;;;;;5102176;28;20212;-83
2021/12/13 10:47:13;;;;;;;4.73;2.40;;;;;;;;;;5102637;28;20250;-82
2021/12/13 10:49:44;;;;;;;3.50;2.50;;;;;;;;;;5105254;28;20211;-83
2021/12/13 10:52:16;;;;;;;4.47;3.17;;;;;;;;;;5106799;27;20264;-83
2021/12/13 10:54:46;;;;;;;3.53;3.23;;;;;;;;;;5097075;28;20254;-83
2021/12/13 10:57:16;;;;;;;2.10;1.90;;;;;;;;;;5106408;28;20211;-82
2021/12/13 10:59:45;;;;;;;1.87;1.73;;;;;;;;;;5105775;28;20225;-81
2021/12/13 11:02:16;;;;;;;2.30;2.10;;;;;;;;;;5113341;28;20235;-81
2021/12/13 11:04:47;;;;;;;5.10;4.70;;;;;;;;;;5115469;28;20220;-83
2021/12/13 11:07:18;;;;;;;5.87;4.30;;;;;;;;;;5113577;28;20206;-83
2021/12/13 11:09:47;;;;;;;4.07;2.67;;;;;;;;;;5099999;28;20277;-83
2021/12/13 11:12:18;;;;;;;2.07;1.97;;;;;;;;;;5110528;28;20205;-81
2021/12/13 11:14:49;;;;;;;2.63;2.43;;;;;;;;;;5106387;28;20216;-81
2021/12/13 11:17:21;;;;;;;2.37;1.67;;;;;;;;;;5113036;28;20219;-81
2021/12/13 11:19:51;;;;;;;1.27;1.27;;;;;;;;;;5108851;28;20637;-81
2021/12/13 11:22:23;;;;;;;3.37;2.40;;;;;;;;;;5116768;28;20247;-81
2021/12/13 11:24:53;;;;;;;3.23;2.77;;;;;;;;;;5110216;28;20249;-81
2021/12/13 11:27:24;;;;;;;6.37;2.70;;;;;;;;;;5107172;28;20216;-83
2021/12/13 11:29:53;;;;;;;2.60;2.40;;;;;;;;;;5103960;28;20314;-83
2021/12/13 11:32:40;;;;;;;3.93;2.40;;;;;;;;;;5100613;28;20217;-83
2021/12/13 11:35:25;;;;;;;3.30;2.30;;;;;;;;;;5100466;28;20193;-83
2021/12/13 11:38:12;;;;;;;2.30;2.03;;;;;;;;;;5115318;28;20246;-83
2021/12/13 11:41:05;;;;;;;1.63;1.60;;;;;;;;;;5101606;28;20300;-81
2021/12/13 11:43:47;;;;;;;1.77;1.67;;;;;;;;;;5105369;28;20204;-80
2021/12/13 11:46:35;;;;;;;2.67;2.03;;;;;;;;;;5096078;28;20209;-80
2021/12/13 11:49:34;;;;;;;2.10;1.90;;;;;;;;;;5112168;27;20246;-80
2021/12/13 11:52:42;;;;;;;2.93;2.50;;;;;;;;;;5087062;28;20327;-81
2021/12/13 11:55:53;;;;;;;3.70;3.03;;;;;;;;;;5104612;28;20205;-82
2021/12/13 12:01:58;;;;;;;2.07;1.40;;;;;;;;;;5103362;28;20204;-78
2021/12/13 12:04:43;;;;;;;2.83;2.57;;;;;;;;;;5100271;28;20228;-83
2021/12/13 12:07:34;;;;;;;2.63;2.37;;;;;;;;;;5102337;28;20236;-80
2021/12/13 12:10:14;;;;;;;4.27;3.07;;;;;;;;;;5104444;28;20204;-82
2021/12/13 12:13:04;;;;;;;7.63;3.67;;;;;;;;;;5099629;28;20212;-82
2021/12/13 12:15:33;;;;;;;2.37;1.90;;;;;;;;;;5103083;28;20274;-82
2021/12/13 12:18:11;;;;;;;2.40;2.07;;;;;;;;;;5099298;28;20208;-81
2021/12/13 12:20:50;;;;;;;2.27;2.07;;;;;;;;;;5094897;28;20220;-82
2021/12/13 12:23:28;;;;;;;3.03;2.73;;;;;;;;;;5100427;28;20201;-82
2021/12/13 12:25:57;;;;;;;2.93;2.53;;;;;;;;;;5105022;28;20245;-82
2021/12/13 12:28:30;;;;;;;3.47;2.80;;;;;;;;;;5103397;28;20250;-83
2021/12/13 12:30:59;;;;;;;1.80;1.30;;;;;;;;;;5104937;28;20208;-81
2021/12/13 12:33:31;;;;;;;1.10;1.10;;;;;;;;;;5101494;28;20205;-81
2021/12/13 12:36:05;;;;;;;6.33;1.90;;;;;;;;;;5104647;28;20184;-81
2021/12/13 12:38:58;;;;;;;1.77;1.67;;;;;;;;;;5096527;28;20210;-82
2021/12/13 12:41:42;;;;;;;6.13;3.33;;;;;;;;;;5105331;28;20205;-82
2021/12/13 12:44:35;;;;;;;3.53;3.23;;;;;;;;;;5099816;28;20204;-82
2021/12/13 12:47:08;;;;;;;6.00;3.10;;;;;;;;;;5103532;28;20200;-82
2021/12/13 12:49:40;;;;;;;4.43;2.90;;;;;;;;;;5105095;28;20258;-82
2021/12/13 12:52:12;;;;;;;3.10;2.40;;;;;;;;;;5098538;28;20232;-82
2021/12/13 12:54:41;;;;;;;1.20;1.17;;;;;;;;;;5095064;28;20205;-82
2021/12/13 12:57:10;;;;;;;4.00;3.70;;;;;;;;;;5095491;28;20220;-82
2021/12/13 12:59:40;;;;;;;3.03;2.50;;;;;;;;;;5107827;28;20228;-81
2021/12/13 13:02:10;;;;;;;1.77;1.67;;;;;;;;;;5109451;28;20283;-80
2021/12/13 13:04:42;;;;;;;3.33;1.67;;;;;;;;;;5101409;28;20220;-81
2021/12/13 13:07:13;;;;;;;3.97;2.00;;;;;;;;;;5102114;28;20223;-82
2021/12/13 13:09:44;;;;;;;2.50;2.30;;;;;;;;;;5095894;28;20208;-82
2021/12/13 13:12:14;;;;;;;5.20;3.33;;;;;;;;;;5103983;28;20298;-82
2021/12/13 13:14:45;;;;;;;4.57;4.17;;;;;;;;;;5100880;28;20216;-82
2021/12/13 13:17:14;;;;;;;6.10;3.30;;;;;;;;;;5092662;28;20210;-82
2021/12/13 13:19:48;;;;;;;4.80;2.23;;;;;;;;;;5094253;28;20299;-82
2021/12/13 13:22:23;;;;;;;6.87;5.43;;;;;;;;;;5098722;28;20208;-82
2021/12/13 13:25:15;;;;;;;4.53;2.23;;;;;;;;;;5098874;28;20224;-82
2021/12/13 13:27:47;;;;;;;5.57;5.03;;;;;;;;;;5096233;28;20333;-84
2021/12/13 13:30:21;;;;;;;4.87;3.90;;;;;;;;;;5100420;28;20277;-84
2021/12/13 13:32:55;;;;;;;5.37;3.73;;;;;;;;;;5107336;28;20246;-86
2021/12/13 13:35:27;;;;;;;1.07;1.07;;;;;;;;;;5096723;28;20209;-84
2021/12/13 13:38:04;;;;;;;5.77;4.67;;;;;;;;;;5097979;28;20211;-83
2021/12/13 13:40:38;;;;;;;8.80;2.70;;;;;;;;;;5104787;28;20212;-84
2021/12/13 13:43:12;;;;;;;3.37;3.00;;;;;;;;;;5101947;28;20291;-84
2021/12/13 13:45:44;;;;;;;3.97;3.67;;;;;;;;;;5099952;28;20200;-84
2021/12/13 13:48:18;;;;;;;1.03;0.93;;;;;;;;;;5099161;28;20204;-82
2021/12/13 13:50:54;;;;;;;4.03;1.53;;;;;;;;;;5104457;28;20243;-84
2021/12/13 13:53:25;;;;;;;4.50;3.27;;;;;;;;;;5097752;28;20208;-84
2021/12/13 13:56:08;;;;;;;2.67;2.47;;;;;;;;;;5106168;28;20208;-84
2021/12/13 13:58:44;;;;;;;10.67;4.97;;;;;;;;;;5100350;28;20196;-81
2021/12/13 14:01:20;;;;;;;6.97;4.90;;;;;;;;;;5101320;28;20225;-83
2021/12/13 14:03:59;;;;;;;7.97;6.83;;;;;;;;;;5101133;28;20238;-85
2021/12/13 14:07:09;;;;;;;8.20;5.60;;;;;;;;;;5102326;28;20246;-84
2021/12/13 14:10:02;;;;;;;3.97;3.57;;;;;;;;;;5098731;28;20197;-85
2021/12/13 14:12:46;;;;;;;4.10;3.07;;;;;;;;;;5103171;28;20291;-84
2021/12/13 14:15:17;;;;;;;3.40;3.07;;;;;;;;;;5099608;28;20216;-82
2021/12/13 14:17:50;;;;;;;5.77;4.23;;;;;;;;;;5108054;28;20212;-85
2021/12/13 14:20:36;;;;;;;6.43;4.20;;;;;;;;;;5106328;28;20315;-83
2021/12/13 14:23:38;;;;;;;8.27;6.50;;;;;;;;;;5101622;28;20213;-87
2021/12/13 14:26:24;;;;;;;3.63;2.80;;;;;;;;;;5108672;28;20204;-83
2021/12/13 14:28:56;;;;;;;11.40;6.37;;;;;;;;;;5113748;28;20226;-83
2021/12/13 14:31:28;;;;;;;7.77;4.97;;;;;;;;;;5101842;27;20201;-85
2021/12/13 14:37:15;;;;;;;2.33;2.23;;;;;;;;;;5107993;28;20261;-86
2021/12/13 14:39:57;;;;;;;2.40;2.13;;;;;;;;;;5108941;28;20292;-86
2021/12/13 14:42:47;;;;;;;6.23;3.27;;;;;;;;;;5101994;28;20205;-84
2021/12/13 14:45:28;;;;;;;9.87;7.07;;;;;;;;;;5109258;28;20223;-83
2021/12/13 14:48:19;;;;;;;6.40;4.57;;;;;;;;;;5105403;28;20209;-85
2021/12/13 14:51:08;;;;;;;7.43;4.73;;;;;;;;;;5095473;28;20312;-85
2021/12/13 14:54:08;;;;;;;7.33;5.07;;;;;;;;;;5099559;28;20272;-85
2021/12/13 14:57:01;;;;;;;10.97;7.77;;;;;;;;;;5110907;28;20242;-84
2021/12/13 14:59:55;;;;;;;6.07;4.33;;;;;;;;;;5102893;28;20208;-85
2021/12/13 15:05:22;;;;;;;9.30;7.63;;;;;;;;;;5106566;28;20207;-82
2021/12/13 15:07:51;;;;;;;5.30;3.07;;;;;;;;;;5101506;28;20216;-83
2021/12/13 15:10:37;;;;;;;10.07;7.30;;;;;;;;;;5115846;28;20203;-83
2021/12/13 15:13:20;;;;;;;8.37;5.47;;;;;;;;;;5112267;28;20214;-84
2021/12/13 15:15:57;;;;;;;4.90;3.60;;;;;;;;;;5102168;28;20446;-87
2021/12/13 15:18:42;;;;;;;10.87;8.17;;;;;;;;;;5094725;28;20209;-84
2021/12/13 15:21:14;;;;;;;6.57;5.63;;;;;;;;;;5105706;28;20247;-84
2021/12/13 15:23:43;;;;;;;6.83;5.33;;;;;;;;;;5103038;28;20251;-83
2021/12/13 15:26:14;;;;;;;8.67;6.47;;;;;;;;;;5103421;28;20219;-82
2021/12/13 15:28:48;;;;;;;8.40;6.63;;;;;;;;;;5108354;28;20207;-84
2021/12/13 15:31:22;;;;;;;7.07;4.40;;;;;;;;;;5100741;28;20253;-83
2021/12/13 15:33:52;;;;;;;11.93;7.00;;;;;;;;;;5098649;28;20460;-84
2021/12/13 15:36:23;;;;;;;8.97;5.23;;;;;;;;;;5095906;28;20215;-83